createdAt,value
2022-11-12T00:00:37.007Z,9.04
2022-11-12T00:03:23.051Z,9.11
2022-11-12T00:06:08.786Z,9.19
2022-11-12T00:08:54.919Z,9.24
2022-11-12T00:11:40.542Z,9.22
2022-11-12T00:14:26.529Z,9.13
2022-11-12T00:17:11.901Z,9.24
2022-11-12T00:19:58.106Z,9.30
2022-11-12T00:22:44.159Z,9.41
2022-11-12T00:25:31.454Z,9.44
2022-11-12T00:28:17.516Z,9.47
2022-11-12T00:31:12.038Z,9.53
2022-11-12T00:33:57.857Z,9.56
2022-11-12T00:36:44.186Z,9.57
2022-11-12T00:39:30.466Z,9.67
2022-11-12T00:42:17.324Z,9.58
2022-11-12T00:45:03.066Z,9.55
2022-11-12T00:47:49.378Z,9.61
2022-11-12T00:50:34.781Z,9.69
2022-11-12T00:53:21.009Z,9.65
2022-11-12T00:56:07.802Z,9.51
2022-11-12T00:58:54.475Z,9.47
2022-11-12T01:01:41.011Z,9.46
2022-11-12T01:04:27.315Z,9.47
2022-11-12T01:07:13.065Z,9.49
2022-11-12T01:09:59.672Z,9.48
2022-11-12T01:12:45.454Z,9.48
2022-11-12T01:15:32.378Z,9.44
2022-11-12T01:18:17.684Z,9.28
2022-11-12T01:21:06.074Z,9.22
2022-11-12T01:23:51.900Z,9.14
2022-11-12T01:26:38.637Z,9.14
2022-11-12T01:29:24.157Z,9.29
2022-11-12T01:32:10.496Z,9.22
2022-11-12T01:34:55.856Z,9.25
2022-11-12T01:37:41.663Z,9.28
2022-11-12T01:40:27.710Z,9.23
2022-11-12T01:43:15.446Z,9.25
2022-11-12T01:46:27.565Z,9.29
2022-11-12T01:49:21.265Z,9.18
2022-11-12T01:52:15.525Z,9.10
2022-11-12T01:55:09.894Z,8.88
2022-11-12T01:58:04.551Z,8.94
2022-11-12T02:00:50.764Z,8.93
2022-11-12T02:03:36.376Z,8.96
2022-11-12T02:06:23.731Z,9.01
2022-11-12T02:09:10.148Z,9.05
2022-11-12T02:11:55.843Z,9.11
2022-11-12T02:14:41.279Z,9.17
2022-11-12T02:17:26.929Z,9.23
2022-11-12T02:20:14.680Z,9.17
2022-11-12T02:23:00.588Z,9.13
2022-11-12T02:25:46.334Z,9.12
2022-11-12T02:28:32.919Z,9.00
2022-11-12T02:31:18.739Z,8.81
2022-11-12T02:34:04.527Z,8.77
2022-11-12T02:36:50.230Z,8.81
2022-11-12T02:39:35.344Z,8.82
2022-11-12T02:42:20.818Z,8.82
2022-11-12T02:45:06.567Z,8.92
2022-11-12T02:47:52.453Z,8.96
2022-11-12T02:50:37.824Z,9.01
2022-11-12T02:53:23.380Z,9.09
2022-11-12T02:56:08.931Z,9.07
2022-11-12T02:58:54.545Z,9.07
2022-11-12T03:01:40.249Z,9.08
2022-11-12T03:04:25.787Z,9.08
2022-11-12T03:07:11.617Z,8.93
2022-11-12T03:09:56.903Z,8.78
2022-11-12T03:12:42.182Z,8.80
2022-11-12T03:15:28.815Z,8.94
2022-11-12T03:18:14.189Z,8.90
2022-11-12T03:20:59.424Z,9.02
2022-11-12T03:23:45.057Z,9.06
2022-11-12T03:26:35.635Z,9.09
2022-11-12T03:29:21.586Z,9.22
2022-11-12T03:32:06.822Z,9.21
2022-11-12T03:34:55.389Z,9.19
2022-11-12T03:37:41.352Z,9.15
2022-11-12T03:40:27.808Z,8.94
2022-11-12T03:43:13.201Z,9.09
2022-11-12T03:45:59.105Z,9.13
2022-11-12T03:48:44.384Z,9.18
2022-11-12T03:51:29.601Z,9.23
2022-11-12T03:54:14.998Z,9.31
2022-11-12T03:57:00.621Z,9.37
2022-11-12T03:59:45.872Z,9.44
2022-11-12T04:02:31.292Z,9.50
2022-11-12T04:05:35.308Z,9.51
2022-11-12T04:08:38.835Z,9.41
2022-11-12T04:11:24.301Z,9.34
2022-11-12T04:14:09.525Z,9.34
2022-11-12T04:17:14.112Z,9.33
2022-11-12T04:20:18.322Z,9.38
2022-11-12T04:23:03.558Z,9.44
2022-11-12T04:26:07.697Z,9.45
2022-11-12T04:29:11.626Z,9.36
2022-11-12T04:31:57.170Z,9.37
2022-11-12T04:34:42.797Z,9.40
2022-11-12T04:37:44.485Z,9.38
2022-11-12T04:40:49.183Z,9.38
2022-11-12T04:43:53.019Z,9.44
2022-11-12T04:46:38.742Z,9.37
2022-11-12T04:49:23.913Z,9.35
2022-11-12T04:52:09.531Z,9.11
2022-11-12T04:54:55.430Z,8.94
2022-11-12T04:57:41.067Z,8.84
2022-11-12T05:00:27.181Z,8.64
2022-11-12T05:03:12.488Z,8.67
2022-11-12T05:06:02.410Z,8.74
2022-11-12T05:08:47.808Z,8.86
2022-11-12T05:11:33.488Z,8.90
2022-11-12T05:14:19.187Z,8.88
2022-11-12T05:17:05.378Z,8.92
2022-11-12T05:19:50.930Z,8.90
2022-11-12T05:22:45.744Z,8.99
2022-11-12T05:25:36.417Z,8.87
2022-11-12T05:28:22.204Z,8.72
2022-11-12T05:31:07.566Z,8.64
2022-11-12T05:33:53.282Z,8.43
2022-11-12T05:36:38.858Z,8.37
2022-11-12T05:39:24.524Z,8.30
2022-11-12T05:42:13.352Z,8.35
2022-11-12T05:44:59.995Z,8.33
2022-11-12T05:47:45.707Z,8.23
2022-11-12T05:50:39.959Z,8.19
2022-11-12T05:53:36.564Z,8.09
2022-11-12T05:56:22.445Z,7.98
2022-11-12T05:59:10.364Z,7.90
2022-11-12T06:01:55.493Z,7.95
2022-11-12T06:04:41.037Z,7.94
2022-11-12T06:07:26.254Z,7.94
2022-11-12T06:10:15.998Z,8.00
2022-11-12T06:13:04.854Z,7.96
2022-11-12T06:15:50.660Z,7.94
2022-11-12T06:18:36.060Z,7.81
2022-11-12T06:21:24.640Z,7.91
2022-11-12T06:24:10.570Z,7.95
2022-11-12T06:26:56.114Z,7.96
2022-11-12T06:29:41.399Z,8.01
2022-11-12T06:32:27.526Z,7.96
2022-11-12T06:35:13.489Z,8.01
2022-11-12T06:37:59.090Z,7.99
2022-11-12T06:40:44.730Z,8.06
2022-11-12T06:43:31.714Z,8.19
2022-11-12T06:46:17.649Z,8.31
2022-11-12T06:49:03.226Z,8.38
2022-11-12T06:51:50.650Z,8.54
2022-11-12T06:54:36.165Z,8.70
2022-11-12T06:57:21.689Z,8.80
2022-11-12T07:00:09.153Z,8.83
2022-11-12T07:02:54.538Z,8.91
2022-11-12T07:05:40.342Z,8.96
2022-11-12T07:08:26.341Z,9.06
2022-11-12T07:11:12.693Z,9.04
2022-11-12T07:13:58.071Z,9.04
2022-11-12T07:16:43.764Z,9.22
2022-11-12T07:19:29.474Z,9.44
2022-11-12T07:22:15.181Z,9.71
2022-11-12T07:25:00.880Z,10.01
2022-11-12T07:27:47.611Z,10.27
2022-11-12T07:30:33.640Z,10.47
2022-11-12T07:33:19.828Z,10.64
2022-11-12T07:36:23.857Z,10.78
2022-11-12T07:39:09.551Z,10.75
2022-11-12T07:41:55.216Z,10.84
2022-11-12T07:44:40.349Z,10.85
2022-11-12T07:47:26.092Z,10.78
2022-11-12T07:50:11.346Z,10.81
2022-11-12T07:52:59.434Z,10.83
2022-11-12T07:55:53.945Z,10.82
2022-11-12T07:58:40.283Z,11.01
2022-11-12T08:01:32.351Z,11.14
2022-11-12T08:04:18.324Z,11.26
2022-11-12T08:07:04.394Z,11.35
2022-11-12T08:09:50.476Z,11.35
2022-11-12T08:12:36.600Z,11.34
2022-11-12T08:15:22.595Z,11.50
2022-11-12T08:18:08.072Z,11.74
2022-11-12T08:20:59.885Z,11.85
2022-11-12T08:23:45.562Z,11.95
2022-11-12T08:26:31.171Z,12.03
2022-11-12T08:29:17.324Z,12.08
2022-11-12T08:32:02.847Z,12.06
2022-11-12T08:34:49.146Z,12.11
2022-11-12T08:37:35.219Z,12.07
2022-11-12T08:40:20.912Z,12.06
2022-11-12T08:43:08.476Z,12.07
2022-11-12T08:45:54.151Z,12.19
2022-11-12T08:48:40.581Z,12.29
2022-11-12T08:51:26.003Z,12.38
2022-11-12T08:54:11.324Z,12.38
2022-11-12T08:56:56.972Z,12.44
2022-11-12T08:59:42.461Z,12.43
2022-11-12T09:02:28.203Z,12.46
2022-11-12T09:05:13.971Z,12.56
2022-11-12T09:08:06.101Z,12.60
2022-11-12T09:10:52.783Z,12.79
2022-11-12T09:13:39.223Z,12.91
2022-11-12T09:16:25.019Z,13.01
2022-11-12T09:19:11.284Z,12.89
2022-11-12T09:21:57.883Z,13.06
2022-11-12T09:24:43.787Z,13.02
2022-11-12T09:27:30.102Z,12.99
2022-11-12T09:30:16.069Z,13.00
2022-11-12T09:33:01.497Z,13.16
2022-11-12T09:35:47.867Z,13.19
2022-11-12T09:38:33.590Z,13.05
2022-11-12T09:41:42.161Z,13.01
2022-11-12T09:44:27.960Z,12.98
2022-11-12T09:47:15.517Z,13.06
2022-11-12T09:50:22.407Z,13.20
2022-11-12T09:53:18.842Z,13.33
2022-11-12T09:56:07.681Z,13.39
2022-11-12T09:58:54.135Z,13.51
2022-11-12T10:01:44.324Z,13.73
2022-11-12T10:05:18.155Z,13.80
2022-11-12T10:08:20.193Z,13.99
2022-11-12T10:11:08.427Z,14.17
2022-11-12T10:14:23.194Z,14.14
2022-11-12T10:17:33.320Z,14.26
2022-11-12T10:20:26.216Z,14.45
2022-11-12T10:23:19.539Z,14.78
2022-11-12T10:26:18.148Z,15.07
2022-11-12T10:29:03.515Z,15.04
2022-11-12T10:31:49.064Z,15.04
2022-11-12T10:34:36.006Z,15.07
2022-11-12T10:37:28.882Z,15.08
2022-11-12T10:40:32.249Z,15.25
2022-11-12T10:43:17.614Z,15.54
2022-11-12T10:46:24.542Z,15.85
2022-11-12T10:49:16.041Z,16.10
2022-11-12T10:52:01.609Z,16.31
2022-11-12T10:54:52.426Z,16.50
2022-11-12T10:57:40.199Z,16.62
2022-11-12T11:00:25.714Z,16.66
2022-11-12T11:03:33.878Z,16.54
2022-11-12T11:06:25.850Z,16.34
2022-11-12T11:09:17.888Z,16.24
2022-11-12T11:12:03.586Z,16.23
2022-11-12T11:15:07.449Z,16.39
2022-11-12T11:17:53.158Z,16.64
2022-11-12T11:20:48.279Z,16.83
2022-11-12T11:23:51.742Z,17.03
2022-11-12T11:27:05.012Z,17.08
2022-11-12T11:29:59.428Z,17.24
2022-11-12T11:32:47.492Z,17.22
2022-11-12T11:36:03.467Z,17.58
2022-11-12T11:39:27.904Z,17.89
2022-11-12T11:42:38.523Z,18.05
2022-11-12T11:45:39.817Z,17.99
2022-11-12T11:48:46.402Z,17.87
2022-11-12T11:51:34.448Z,17.84
2022-11-12T11:54:49.314Z,17.78
2022-11-12T11:57:48.065Z,17.62
2022-11-12T12:01:11.454Z,17.27
2022-11-12T12:04:15.456Z,17.04
2022-11-12T12:07:20.392Z,16.75
2022-11-12T12:10:46.611Z,16.62
2022-11-12T12:14:02.241Z,16.55
2022-11-12T12:17:29.194Z,16.34
2022-11-12T12:20:22.194Z,16.38
2022-11-12T12:23:38.406Z,16.24
2022-11-12T12:26:37.373Z,16.27
2022-11-12T12:29:33.136Z,16.45
2022-11-12T12:32:24.611Z,16.50
2022-11-12T12:35:25.445Z,16.47
2022-11-12T12:38:33.207Z,16.45
2022-11-12T12:41:44.611Z,16.27
2022-11-12T12:44:52.302Z,16.14
2022-11-12T12:47:41.684Z,15.99
2022-11-12T12:50:27.923Z,15.84
2022-11-12T12:53:16.368Z,15.65
2022-11-12T12:56:04.122Z,15.46
2022-11-12T12:58:50.934Z,15.24
2022-11-12T13:01:36.608Z,15.08
2022-11-12T13:04:57.458Z,14.93
2022-11-12T13:07:49.339Z,14.76
2022-11-12T13:10:44.587Z,14.63
2022-11-12T13:13:36.716Z,14.53
2022-11-12T13:16:50.538Z,14.37
2022-11-12T13:20:10.876Z,14.29
2022-11-12T13:22:56.584Z,14.26
2022-11-12T13:25:42.224Z,14.18
2022-11-12T13:28:27.955Z,14.18
2022-11-12T13:31:29.282Z,14.21
2022-11-12T13:34:28.571Z,14.20
2022-11-12T13:37:23.385Z,14.18
2022-11-12T13:40:15.020Z,14.16
2022-11-12T13:43:27.673Z,14.15
2022-11-12T13:46:33.578Z,14.14
2022-11-12T13:49:19.665Z,14.04
2022-11-12T13:52:08.165Z,14.06
2022-11-12T13:55:06.502Z,14.05
2022-11-12T13:57:56.286Z,14.03
2022-11-12T14:00:52.413Z,14.00
2022-11-12T14:03:42.854Z,13.95
2022-11-12T14:06:34.302Z,13.88
2022-11-12T14:09:19.464Z,13.85
2022-11-12T14:12:22.809Z,13.81
2022-11-12T14:15:17.062Z,13.77
2022-11-12T14:18:20.383Z,13.64
2022-11-12T14:21:16.953Z,13.62
2022-11-12T14:24:03.423Z,13.58
2022-11-12T14:26:48.939Z,13.52
2022-11-12T14:29:36.886Z,13.52
2022-11-12T14:32:24.382Z,13.48
2022-11-12T14:35:20.022Z,13.47
2022-11-12T14:38:10.289Z,13.42
2022-11-12T14:40:59.325Z,13.41
2022-11-12T14:43:48.241Z,13.39
2022-11-12T14:46:43.727Z,13.38
2022-11-12T14:49:44.460Z,13.39
2022-11-12T14:52:40.751Z,13.35
2022-11-12T14:55:30.209Z,13.32
2022-11-12T14:58:16.898Z,13.24
2022-11-12T15:02:26.616Z,13.18
2022-11-12T15:04:59.492Z,13.21
2022-11-12T15:08:01.141Z,13.20
2022-11-12T15:10:47.125Z,13.19
2022-11-12T15:13:40.329Z,13.19
2022-11-12T15:16:36.332Z,13.18
2022-11-12T15:19:24.527Z,13.16
2022-11-12T15:22:21.222Z,13.14
2022-11-12T15:25:30.972Z,13.13
2022-11-12T15:28:25.149Z,13.11
2022-11-12T15:31:19.338Z,13.12
2022-11-12T15:34:23.284Z,13.13
2022-11-12T15:37:21.241Z,13.12
2022-11-12T15:40:16.510Z,13.11
2022-11-12T15:43:02.427Z,13.07
2022-11-12T15:45:50.428Z,13.11
2022-11-12T15:48:35.858Z,13.10
2022-11-12T15:51:22.269Z,13.07
2022-11-12T15:54:07.695Z,13.11
2022-11-12T15:56:52.967Z,13.07
2022-11-12T15:59:38.750Z,13.06
2022-11-12T16:02:25.144Z,13.04
2022-11-12T16:05:18.375Z,13.06
2022-11-12T16:08:04.011Z,13.00
2022-11-12T16:10:50.076Z,13.03
2022-11-12T16:13:36.366Z,13.02
2022-11-12T16:16:21.765Z,13.01
2022-11-12T16:19:16.836Z,13.03
2022-11-12T16:22:02.653Z,13.00
2022-11-12T16:24:48.161Z,12.99
2022-11-12T16:27:33.898Z,12.96
2022-11-12T16:30:27.279Z,12.96
2022-11-12T16:33:13.620Z,12.95
2022-11-12T16:35:59.099Z,12.96
2022-11-12T16:38:46.598Z,12.94
2022-11-12T16:41:32.250Z,12.97
2022-11-12T16:44:17.597Z,12.96
2022-11-12T16:47:04.099Z,12.95
2022-11-12T16:49:49.878Z,12.94
2022-11-12T16:52:35.428Z,12.91
2022-11-12T16:55:21.590Z,12.90
2022-11-12T16:58:07.237Z,12.88
2022-11-12T17:00:53.529Z,12.88
2022-11-12T17:03:39.023Z,12.85
2022-11-12T17:06:33.324Z,12.84
2022-11-12T17:09:18.923Z,12.80
2022-11-12T17:12:04.827Z,12.78
2022-11-12T17:14:50.628Z,12.73
2022-11-12T17:17:36.245Z,12.72
2022-11-12T17:20:22.019Z,12.65
2022-11-12T17:23:07.758Z,12.65
2022-11-12T17:26:02.088Z,12.66
2022-11-12T17:28:52.560Z,12.65
2022-11-12T17:31:42.248Z,12.60
2022-11-12T17:34:27.587Z,12.66
2022-11-12T17:37:13.549Z,12.65
2022-11-12T17:39:59.330Z,12.65
2022-11-12T17:42:45.168Z,12.64
2022-11-12T17:45:31.573Z,12.62
2022-11-12T17:48:20.285Z,12.60
2022-11-12T17:51:10.763Z,12.59
2022-11-12T17:53:56.467Z,12.56
2022-11-12T17:56:42.200Z,12.55
2022-11-12T17:59:27.858Z,12.54
2022-11-12T18:02:13.723Z,12.53
2022-11-12T18:04:59.111Z,12.50
2022-11-12T18:07:44.773Z,12.49
2022-11-12T18:10:30.564Z,12.47
2022-11-12T18:13:15.840Z,12.46
2022-11-12T18:16:02.321Z,12.44
2022-11-12T18:18:48.067Z,12.42
2022-11-12T18:21:34.168Z,12.39
2022-11-12T18:24:19.877Z,12.37
2022-11-12T18:27:06.009Z,12.35
2022-11-12T18:29:52.107Z,12.34
2022-11-12T18:32:39.644Z,12.31
2022-11-12T18:35:29.651Z,12.31
2022-11-12T18:38:16.104Z,12.30
2022-11-12T18:41:06.980Z,12.28
2022-11-12T18:43:56.652Z,12.30
2022-11-12T18:46:42.287Z,12.28
2022-11-12T18:49:28.744Z,12.27
2022-11-12T18:52:14.645Z,12.26
2022-11-12T18:55:01.240Z,12.26
2022-11-12T18:57:47.104Z,12.26
2022-11-12T19:00:33.327Z,12.27
2022-11-12T19:03:18.789Z,12.25
2022-11-12T19:06:06.899Z,12.17
2022-11-12T19:08:57.906Z,12.07
2022-11-12T19:11:43.649Z,12.04
2022-11-12T19:14:29.772Z,11.97
2022-11-12T19:17:15.799Z,11.89
2022-11-12T19:20:01.237Z,11.82
2022-11-12T19:22:47.060Z,11.79
2022-11-12T19:25:35.153Z,11.77
2022-11-12T19:28:21.126Z,11.75
2022-11-12T19:31:18.194Z,11.80
2022-11-12T19:34:04.520Z,11.77
2022-11-12T19:37:00.545Z,11.76
2022-11-12T19:39:57.057Z,11.74
2022-11-12T19:42:42.572Z,11.76
2022-11-12T19:45:28.789Z,11.79
2022-11-12T19:48:14.470Z,11.82
2022-11-12T19:51:04.847Z,11.86
2022-11-12T19:53:51.095Z,11.85
2022-11-12T19:56:36.759Z,11.87
2022-11-12T19:59:22.506Z,11.87
2022-11-12T20:02:11.135Z,11.87
2022-11-12T20:04:56.783Z,11.82
2022-11-12T20:07:43.086Z,11.85
2022-11-12T20:10:28.938Z,11.88
2022-11-12T20:13:14.618Z,11.89
2022-11-12T20:16:05.121Z,11.85
2022-11-12T20:18:53.455Z,11.78
2022-11-12T20:21:41.823Z,11.76
2022-11-12T20:24:28.106Z,11.73
2022-11-12T20:27:14.113Z,11.71
2022-11-12T20:29:59.780Z,11.63
2022-11-12T20:32:45.324Z,11.59
2022-11-12T20:35:33.924Z,11.56
2022-11-12T20:38:19.450Z,11.58
2022-11-12T20:41:06.483Z,11.56
2022-11-12T20:44:00.859Z,11.58
2022-11-12T20:46:46.854Z,11.62
2022-11-12T20:49:32.395Z,11.59
2022-11-12T20:52:18.684Z,11.62
2022-11-12T20:55:04.688Z,11.64
2022-11-12T20:57:50.258Z,11.67
2022-11-12T21:00:36.019Z,11.63
2022-11-12T21:03:21.509Z,11.61
2022-11-12T21:06:11.976Z,11.63
2022-11-12T21:08:59.913Z,11.60
2022-11-12T21:11:45.949Z,11.61
2022-11-12T21:14:31.499Z,11.58
2022-11-12T21:17:17.005Z,11.58
2022-11-12T21:20:04.811Z,11.58
2022-11-12T21:22:50.387Z,11.56
2022-11-12T21:25:40.715Z,11.56
2022-11-12T21:28:27.242Z,11.49
2022-11-12T21:31:15.993Z,11.45
2022-11-12T21:34:04.682Z,11.38
2022-11-12T21:36:51.428Z,11.32
2022-11-12T21:39:37.243Z,11.33
2022-11-12T21:42:22.930Z,11.30
2022-11-12T21:45:09.118Z,11.28
2022-11-12T21:47:55.115Z,11.21
2022-11-12T21:50:41.076Z,11.17
2022-11-12T21:53:27.503Z,11.14
2022-11-12T21:56:16.092Z,11.12
2022-11-12T21:59:04.350Z,11.01
2022-11-12T22:01:50.420Z,11.01
2022-11-12T22:04:36.724Z,10.97
2022-11-12T22:07:22.535Z,10.99
2022-11-12T22:10:08.492Z,11.00
2022-11-12T22:13:24.645Z,10.95
2022-11-12T22:16:10.388Z,10.89
2022-11-12T22:18:58.687Z,10.87
2022-11-12T22:21:44.664Z,10.88
2022-11-12T22:24:30.998Z,10.86
2022-11-12T22:27:17.226Z,10.85
2022-11-12T22:30:02.448Z,10.91
2022-11-12T22:32:49.030Z,10.96
2022-11-12T22:35:35.720Z,10.98
2022-11-12T22:38:21.599Z,11.00
2022-11-12T22:41:13.433Z,11.03
2022-11-12T22:44:01.836Z,11.00
2022-11-12T22:46:47.983Z,10.94
2022-11-12T22:49:34.005Z,10.89
2022-11-12T22:52:19.885Z,10.90
2022-11-12T22:55:06.257Z,10.86
2022-11-12T22:57:51.660Z,10.90
2022-11-12T23:00:37.701Z,10.91
2022-11-12T23:03:23.585Z,10.92
2022-11-12T23:06:10.149Z,10.84
2022-11-12T23:08:57.065Z,10.76
2022-11-12T23:11:42.872Z,10.65
2022-11-12T23:14:28.624Z,10.65
2022-11-12T23:17:15.141Z,10.63
2022-11-12T23:20:01.116Z,10.59
2022-11-12T23:22:47.249Z,10.57
2022-11-12T23:25:36.072Z,10.57
2022-11-12T23:28:21.788Z,10.60
2022-11-12T23:31:12.144Z,10.60
2022-11-12T23:34:00.175Z,10.39
2022-11-12T23:36:45.518Z,10.16
2022-11-12T23:39:30.865Z,10.05
2022-11-12T23:42:16.314Z,9.89
2022-11-12T23:45:01.587Z,9.78
2022-11-12T23:47:46.819Z,9.72
2022-11-12T23:50:32.500Z,9.72
2022-11-12T23:53:18.730Z,9.78
2022-11-12T23:56:05.957Z,9.80
2022-11-12T23:58:55.091Z,9.78
